createdAt,value
2018-05-21T00:01:37.897Z,18.50
2018-05-21T00:04:07.493Z,18.50
2018-05-21T00:06:37.624Z,18.50
2018-05-21T00:09:07.237Z,18.30
2018-05-21T00:11:36.096Z,18.30
2018-05-21T00:14:04.939Z,18.30
2018-05-21T00:16:33.770Z,18.30
2018-05-21T00:19:02.618Z,18.20
2018-05-21T00:21:31.451Z,18.20
2018-05-21T00:24:01.376Z,18.20
2018-05-21T00:26:30.980Z,18.10
2018-05-21T00:29:00.593Z,18.10
2018-05-21T00:31:30.197Z,18.00
2018-05-21T00:33:59.089Z,18.00
2018-05-21T00:36:28.854Z,18.00
2018-05-21T00:38:58.499Z,18.00
2018-05-21T00:41:27.320Z,17.80
2018-05-21T00:43:56.920Z,17.40
2018-05-21T00:46:25.760Z,17.40
2018-05-21T00:48:55.257Z,17.40
2018-05-21T00:51:24.083Z,17.50
2018-05-21T00:53:52.915Z,17.60
2018-05-21T00:56:22.529Z,17.70
2018-05-21T00:58:52.124Z,17.80
2018-05-21T01:01:21.729Z,17.70
2018-05-21T01:03:51.328Z,17.70
2018-05-21T01:06:20.168Z,17.70
2018-05-21T01:08:49.020Z,17.80
2018-05-21T01:11:18.639Z,18.00
2018-05-21T01:13:48.524Z,17.90
2018-05-21T01:16:17.353Z,17.80
2018-05-21T01:18:46.189Z,17.90
2018-05-21T01:21:15.253Z,17.90
2018-05-21T01:23:44.097Z,17.90
2018-05-21T01:26:12.930Z,17.80
2018-05-21T01:28:41.761Z,17.80
2018-05-21T01:31:10.663Z,17.60
2018-05-21T01:33:39.434Z,17.50
2018-05-21T01:36:08.290Z,17.50
2018-05-21T01:38:37.129Z,17.40
2018-05-21T01:41:05.937Z,17.30
2018-05-21T01:43:34.781Z,17.30
2018-05-21T01:46:03.931Z,17.10
2018-05-21T01:48:32.784Z,16.80
2018-05-21T01:51:01.629Z,16.70
2018-05-21T01:53:30.464Z,16.90
2018-05-21T01:55:59.280Z,16.90
2018-05-21T01:58:28.148Z,16.90
2018-05-21T02:00:56.960Z,16.90
2018-05-21T02:03:25.810Z,17.00
2018-05-21T02:05:54.652Z,17.10
2018-05-21T02:08:23.551Z,17.10
2018-05-21T02:10:52.340Z,17.20
2018-05-21T02:13:21.185Z,17.20
2018-05-21T02:15:50.026Z,17.10
2018-05-21T02:18:18.877Z,17.10
2018-05-21T02:20:47.707Z,17.10
2018-05-21T02:23:16.546Z,17.10
2018-05-21T02:25:45.373Z,17.10
2018-05-21T02:28:14.212Z,17.10
2018-05-21T02:30:43.498Z,17.00
2018-05-21T02:33:13.106Z,16.90
2018-05-21T02:35:41.951Z,16.80
2018-05-21T02:38:10.785Z,16.80
2018-05-21T02:40:39.619Z,16.60
2018-05-21T02:43:08.453Z,16.60
2018-05-21T02:45:37.483Z,16.60
2018-05-21T02:48:06.329Z,16.60
2018-05-21T02:50:35.181Z,16.50
2018-05-21T02:53:04.774Z,16.50
2018-05-21T02:55:34.700Z,16.30
2018-05-21T02:58:04.304Z,16.30
2018-05-21T03:00:33.930Z,16.40
2018-05-21T03:03:03.533Z,16.50
2018-05-21T03:05:33.136Z,16.50
2018-05-21T03:08:02.717Z,16.40
2018-05-21T03:10:31.568Z,16.40
2018-05-21T03:13:00.397Z,16.40
2018-05-21T03:15:29.437Z,16.30
2018-05-21T03:17:58.253Z,16.30
2018-05-21T03:20:27.093Z,16.30
2018-05-21T03:22:56.704Z,16.30
2018-05-21T03:25:26.329Z,16.20
2018-05-21T03:27:55.136Z,16.20
2018-05-21T03:30:23.996Z,16.20
2018-05-21T03:32:52.826Z,16.10
2018-05-21T03:35:21.901Z,16.00
2018-05-21T03:37:50.734Z,16.00
2018-05-21T03:40:19.594Z,15.90
2018-05-21T03:42:49.218Z,15.90
2018-05-21T03:45:18.032Z,15.90
2018-05-21T03:47:46.878Z,16.00
2018-05-21T03:50:16.466Z,15.90
2018-05-21T03:52:45.305Z,15.90
2018-05-21T03:55:14.134Z,15.80
2018-05-21T03:57:42.982Z,15.80
2018-05-21T04:00:23.752Z,15.80
2018-05-21T04:03:05.128Z,15.90
2018-05-21T04:05:33.964Z,16.00
2018-05-21T04:08:04.483Z,15.90
2018-05-21T04:10:33.305Z,15.80
2018-05-21T04:13:02.908Z,16.10
2018-05-21T04:15:32.519Z,16.10
2018-05-21T04:18:01.701Z,16.10
2018-05-21T04:20:31.305Z,16.10
2018-05-21T04:23:00.145Z,16.10
2018-05-21T04:25:29.073Z,16.20
2018-05-21T04:27:57.827Z,16.20
2018-05-21T04:30:26.665Z,16.10
2018-05-21T04:32:55.513Z,16.10
2018-05-21T04:35:24.333Z,16.00
2018-05-21T04:37:53.203Z,16.10
2018-05-21T04:40:22.013Z,16.10
2018-05-21T04:42:50.837Z,16.10
2018-05-21T04:45:19.714Z,16.00
2018-05-21T04:47:48.556Z,16.10
2018-05-21T04:50:18.163Z,16.20
2018-05-21T04:52:47.770Z,16.40
2018-05-21T04:55:17.380Z,16.30
2018-05-21T04:57:46.973Z,16.30
2018-05-21T05:00:16.599Z,16.30
2018-05-21T05:02:46.245Z,16.30
2018-05-21T05:05:15.013Z,16.30
2018-05-21T05:07:43.833Z,16.40
2018-05-21T05:10:12.691Z,16.40
2018-05-21T05:12:41.540Z,16.40
2018-05-21T05:15:10.370Z,16.50
2018-05-21T05:17:39.208Z,16.50
2018-05-21T05:20:08.048Z,16.40
2018-05-21T05:22:36.883Z,16.30
2018-05-21T05:25:05.720Z,16.20
2018-05-21T05:27:34.585Z,16.30
2018-05-21T05:30:04.177Z,16.40
2018-05-21T05:32:33.012Z,16.40
2018-05-21T05:35:01.833Z,16.30
2018-05-21T05:37:30.680Z,16.30
2018-05-21T05:39:59.514Z,16.30
2018-05-21T05:42:28.361Z,16.30
2018-05-21T05:44:57.207Z,16.30
2018-05-21T05:47:26.058Z,16.40
2018-05-21T05:49:54.893Z,16.40
2018-05-21T05:52:24.514Z,16.60
2018-05-21T05:54:54.117Z,16.70
2018-05-21T05:57:23.717Z,16.80
2018-05-21T05:59:53.309Z,16.80
2018-05-21T06:02:23.265Z,16.80
2018-05-21T06:04:52.101Z,16.90
2018-05-21T06:07:20.934Z,16.80
2018-05-21T06:09:50.553Z,16.90
2018-05-21T06:12:19.457Z,16.80
2018-05-21T06:14:48.340Z,16.90
2018-05-21T06:17:17.177Z,16.90
2018-05-21T06:19:46.022Z,17.00
2018-05-21T06:22:14.851Z,17.00
2018-05-21T06:24:43.704Z,17.00
2018-05-21T06:27:12.560Z,17.10
2018-05-21T06:29:42.148Z,17.20
2018-05-21T06:32:10.984Z,17.10
2018-05-21T06:34:39.951Z,17.20
2018-05-21T06:37:08.641Z,17.20
2018-05-21T06:39:37.489Z,17.30
2018-05-21T06:42:06.341Z,17.30
2018-05-21T06:44:35.188Z,17.40
2018-05-21T06:47:04.137Z,17.50
2018-05-21T06:49:32.971Z,17.50
2018-05-21T06:52:02.596Z,17.60
2018-05-21T06:54:31.450Z,17.60
2018-05-21T06:57:00.275Z,17.60
2018-05-21T06:59:29.121Z,17.60
2018-05-21T07:01:57.981Z,17.60
2018-05-21T07:04:26.836Z,17.70
2018-05-21T07:06:56.437Z,17.80
2018-05-21T07:09:26.041Z,17.90
2018-05-21T07:11:55.648Z,17.90
2018-05-21T07:14:25.249Z,18.00
2018-05-21T07:16:54.897Z,18.00
2018-05-21T07:19:23.722Z,18.00
2018-05-21T07:21:52.583Z,18.00
2018-05-21T07:24:21.469Z,18.10
2018-05-21T07:26:50.312Z,18.20
2018-05-21T07:29:19.925Z,18.40
2018-05-21T07:31:49.545Z,18.40
2018-05-21T07:34:18.433Z,18.40
2018-05-21T07:36:48.033Z,18.50
2018-05-21T07:39:17.650Z,18.60
2018-05-21T07:41:46.481Z,18.50
2018-05-21T07:44:15.314Z,18.70
2018-05-21T07:46:44.165Z,18.80
2018-05-21T07:49:13.001Z,18.90
2018-05-21T07:51:41.944Z,18.90
2018-05-21T07:54:11.472Z,19.00
2018-05-21T07:56:41.075Z,19.10
2018-05-21T07:59:10.733Z,19.20
2018-05-21T08:01:39.557Z,19.10
2018-05-21T08:04:08.391Z,19.20
2018-05-21T08:06:37.234Z,19.30
2018-05-21T08:09:06.070Z,19.40
2018-05-21T08:11:34.909Z,19.50
2018-05-21T08:14:04.834Z,19.80
2018-05-21T08:16:34.479Z,19.90
2018-05-21T08:19:03.314Z,19.90
2018-05-21T08:21:32.179Z,20.00
2018-05-21T08:24:01.018Z,20.00
2018-05-21T08:26:30.637Z,20.40
2018-05-21T08:29:00.255Z,20.70
2018-05-21T08:31:29.101Z,20.70
2018-05-21T08:33:57.941Z,21.00
2018-05-21T08:36:26.783Z,21.10
2018-05-21T08:38:55.632Z,21.20
2018-05-21T08:41:24.485Z,21.30
2018-05-21T08:43:53.328Z,21.50
2018-05-21T08:46:22.925Z,22.10
2018-05-21T08:48:52.561Z,22.30
2018-05-21T08:51:21.369Z,22.20
2018-05-21T08:53:50.238Z,22.50
2018-05-21T08:56:19.840Z,23.50
2018-05-21T08:58:49.460Z,23.70
2018-05-21T09:01:18.302Z,23.70
2018-05-21T09:03:47.164Z,24.00
2018-05-21T09:06:15.989Z,24.00
2018-05-21T09:08:45.621Z,24.00
2018-05-21T09:11:14.507Z,24.00
2018-05-21T09:13:44.099Z,25.00
2018-05-21T09:16:13.750Z,25.50
2018-05-21T09:18:43.327Z,26.40
2018-05-21T09:21:12.962Z,27.10
2018-05-21T09:23:42.540Z,27.80
2018-05-21T09:26:12.203Z,28.70
2018-05-21T09:28:41.110Z,28.60
2018-05-21T09:31:09.955Z,29.40
2018-05-21T09:33:38.803Z,30.00
2018-05-21T09:36:08.425Z,29.50
2018-05-21T09:38:39.228Z,29.50
2018-05-21T09:41:09.806Z,30.20
2018-05-21T09:43:38.665Z,30.10
2018-05-21T09:46:07.597Z,30.40
2018-05-21T09:48:36.546Z,30.80
2018-05-21T09:51:05.326Z,31.20
2018-05-21T09:53:34.164Z,31.40
2018-05-21T09:56:03.037Z,31.90
2018-05-21T09:58:31.885Z,32.60
2018-05-21T10:01:01.040Z,32.90
2018-05-21T10:03:29.911Z,32.50
2018-05-21T10:05:59.537Z,31.40
2018-05-21T10:08:28.394Z,31.30
2018-05-21T10:10:58.006Z,31.00
2018-05-21T10:13:26.849Z,30.90
2018-05-21T10:15:55.704Z,30.40
2018-05-21T10:18:24.748Z,30.50
2018-05-21T10:20:53.631Z,30.50
2018-05-21T10:23:22.500Z,31.20
2018-05-21T10:25:51.359Z,31.20
2018-05-21T10:28:20.950Z,31.50
2018-05-21T10:30:50.916Z,31.90
2018-05-21T10:33:19.784Z,31.80
2018-05-21T10:35:48.616Z,32.00
2018-05-21T10:38:17.473Z,32.40
2018-05-21T10:40:46.304Z,32.20
2018-05-21T10:43:15.947Z,32.20
2018-05-21T10:45:44.804Z,32.20
2018-05-21T10:48:13.683Z,31.90
2018-05-21T10:50:42.529Z,32.00
2018-05-21T10:53:11.376Z,32.40
2018-05-21T10:55:41.019Z,32.60
2018-05-21T10:58:09.991Z,32.60
2018-05-21T11:00:38.840Z,32.50
2018-05-21T11:03:07.687Z,32.50
2018-05-21T11:05:36.573Z,32.90
2018-05-21T11:08:05.417Z,32.60
2018-05-21T11:10:34.287Z,32.50
2018-05-21T11:13:03.142Z,32.40
2018-05-21T11:15:31.990Z,33.00
2018-05-21T11:18:01.982Z,33.20
2018-05-21T11:20:31.560Z,33.50
2018-05-21T11:23:00.398Z,33.50
2018-05-21T11:25:30.016Z,33.30
2018-05-21T11:27:58.861Z,33.30
2018-05-21T11:30:27.720Z,33.50
2018-05-21T11:32:56.573Z,33.40
2018-05-21T11:35:25.397Z,33.70
2018-05-21T11:37:54.248Z,33.40
2018-05-21T11:40:23.104Z,33.50
2018-05-21T11:42:51.963Z,33.60
2018-05-21T11:45:20.808Z,33.50
2018-05-21T11:47:50.461Z,33.40
2018-05-21T11:50:19.271Z,33.30
2018-05-21T11:52:48.123Z,32.90
2018-05-21T11:55:16.954Z,33.10
2018-05-21T11:57:45.835Z,33.50
2018-05-21T12:00:14.650Z,33.80
2018-05-21T12:02:44.348Z,34.00
2018-05-21T12:05:13.130Z,34.00
2018-05-21T12:07:41.976Z,34.10
2018-05-21T12:10:10.815Z,33.90
2018-05-21T12:12:40.462Z,31.10
2018-05-21T12:15:09.336Z,31.00
2018-05-21T12:17:38.210Z,29.90
2018-05-21T12:20:07.044Z,28.80
2018-05-21T12:22:36.010Z,28.20
2018-05-21T12:25:05.635Z,26.90
2018-05-21T12:27:34.484Z,26.80
2018-05-21T12:30:03.328Z,26.70
2018-05-21T12:32:32.208Z,26.50
2018-05-21T12:35:01.075Z,26.40
2018-05-21T12:37:30.659Z,26.20
2018-05-21T12:40:00.274Z,26.10
2018-05-21T12:42:29.880Z,26.00
2018-05-21T12:44:58.746Z,25.90
2018-05-21T12:47:28.109Z,26.10
2018-05-21T12:49:58.451Z,26.20
2018-05-21T12:52:27.287Z,26.20
2018-05-21T12:54:56.190Z,26.20
2018-05-21T12:57:25.022Z,26.10
2018-05-21T12:59:53.888Z,26.00
2018-05-21T13:02:23.513Z,25.90
2018-05-21T13:04:52.374Z,25.90
2018-05-21T13:07:21.194Z,25.80
2018-05-21T13:09:50.012Z,25.80
2018-05-21T13:12:18.899Z,25.90
2018-05-21T13:14:47.730Z,26.00
2018-05-21T13:17:17.376Z,26.00
2018-05-21T13:19:46.218Z,26.00
2018-05-21T13:22:15.681Z,26.10
2018-05-21T13:24:44.510Z,26.10
2018-05-21T13:27:13.368Z,26.00
2018-05-21T13:29:43.034Z,26.00
2018-05-21T13:32:12.673Z,25.90
2018-05-21T13:34:41.855Z,25.80
2018-05-21T13:37:10.613Z,25.90
2018-05-21T13:39:39.457Z,25.90
2018-05-21T13:42:08.306Z,26.00
2018-05-21T13:44:37.140Z,26.00
2018-05-21T13:47:06.413Z,26.10
2018-05-21T13:49:35.257Z,26.10
2018-05-21T13:52:04.816Z,26.00
2018-05-21T13:54:33.682Z,26.00
2018-05-21T13:57:02.508Z,26.00
2018-05-21T13:59:32.124Z,26.00
2018-05-21T14:02:00.973Z,26.00
2018-05-21T14:04:29.836Z,26.00
2018-05-21T14:06:58.684Z,26.00
2018-05-21T14:09:27.577Z,26.10
2018-05-21T14:11:57.189Z,26.00
2018-05-21T14:14:26.821Z,25.90
2018-05-21T14:16:55.656Z,25.80
2018-05-21T14:19:26.035Z,25.80
2018-05-21T14:21:54.850Z,25.90
2018-05-21T14:24:23.708Z,26.00
2018-05-21T14:26:52.564Z,26.10
2018-05-21T14:29:21.406Z,26.30
2018-05-21T14:31:50.249Z,26.10
2018-05-21T14:34:19.864Z,26.10
2018-05-21T14:36:49.469Z,26.10
2018-05-21T14:39:19.081Z,26.10
2018-05-21T14:41:48.673Z,26.10
2018-05-21T14:44:18.304Z,26.20
2018-05-21T14:46:47.863Z,26.10
2018-05-21T14:49:16.734Z,26.40
2018-05-21T14:51:45.561Z,26.40
2018-05-21T14:54:15.168Z,26.20
2018-05-21T14:56:44.165Z,26.10
2018-05-21T14:59:13.113Z,26.20
2018-05-21T15:01:41.969Z,26.10
2018-05-21T15:04:10.833Z,26.10
2018-05-21T15:06:40.452Z,26.00
2018-05-21T15:09:10.053Z,26.00
2018-05-21T15:11:39.772Z,26.10
2018-05-21T15:14:08.647Z,26.00
2018-05-21T15:16:38.274Z,26.10
2018-05-21T15:19:08.029Z,26.00
2018-05-21T15:21:36.858Z,26.10
2018-05-21T15:24:06.469Z,26.00
2018-05-21T15:26:36.073Z,26.10
2018-05-21T15:29:05.693Z,26.10
2018-05-21T15:31:34.516Z,26.10
2018-05-21T15:34:03.392Z,25.90
2018-05-21T15:36:32.232Z,25.90
2018-05-21T15:39:01.092Z,26.00
2018-05-21T15:41:29.909Z,25.80
2018-05-21T15:43:58.761Z,25.80
2018-05-21T15:46:29.179Z,25.80
2018-05-21T15:48:58.777Z,25.70
2018-05-21T15:51:28.357Z,25.60
2018-05-21T15:53:58.707Z,25.60
2018-05-21T15:56:28.285Z,25.50
2018-05-21T15:58:57.130Z,25.50
2018-05-21T16:01:25.970Z,25.40
2018-05-21T16:03:54.827Z,25.40
2018-05-21T16:06:23.688Z,25.40
2018-05-21T16:08:53.317Z,25.40
2018-05-21T16:11:22.197Z,25.40
2018-05-21T16:13:51.040Z,25.40
2018-05-21T16:16:20.703Z,25.50
2018-05-21T16:18:49.538Z,25.40
2018-05-21T16:21:18.379Z,25.40
2018-05-21T16:23:47.215Z,25.30
2018-05-21T16:26:16.078Z,25.30
2018-05-21T16:28:45.049Z,25.40
2018-05-21T16:31:13.880Z,25.40
2018-05-21T16:33:43.254Z,25.50
2018-05-21T16:36:12.090Z,25.40
2018-05-21T16:38:41.703Z,25.20
2018-05-21T16:41:10.586Z,25.20
2018-05-21T16:43:40.195Z,25.20
2018-05-21T16:46:09.059Z,25.20
2018-05-21T16:48:38.908Z,24.90
2018-05-21T16:51:08.065Z,24.90
2018-05-21T16:53:37.670Z,24.90
2018-05-21T16:56:07.289Z,24.90
2018-05-21T16:58:36.155Z,24.80
2018-05-21T17:01:04.986Z,24.90
2018-05-21T17:03:34.281Z,24.80
2018-05-21T17:06:03.871Z,24.80
2018-05-21T17:08:33.282Z,24.70
2018-05-21T17:11:02.242Z,24.80
2018-05-21T17:13:31.802Z,24.80
2018-05-21T17:16:00.633Z,24.80
2018-05-21T17:18:30.991Z,24.80
2018-05-21T17:20:59.838Z,24.80
2018-05-21T17:23:28.693Z,24.80
2018-05-21T17:25:57.556Z,24.80
2018-05-21T17:28:29.336Z,24.80
2018-05-21T17:30:58.200Z,24.70
2018-05-21T17:33:27.805Z,24.60
2018-05-21T17:35:57.419Z,24.60
2018-05-21T17:38:27.029Z,24.50
2018-05-21T17:40:56.647Z,24.50
2018-05-21T17:43:26.262Z,24.40
2018-05-21T17:45:55.099Z,24.40
2018-05-21T17:48:23.949Z,24.40
2018-05-21T17:50:53.050Z,24.40
2018-05-21T17:53:21.856Z,24.50
2018-05-21T17:55:51.044Z,24.50
2018-05-21T17:58:21.263Z,24.40
2018-05-21T18:00:50.877Z,24.40
2018-05-21T18:03:20.917Z,24.40
2018-05-21T18:05:50.119Z,24.40
2018-05-21T18:08:19.009Z,24.40
2018-05-21T18:10:47.847Z,24.40
2018-05-21T18:13:16.690Z,24.30
2018-05-21T18:15:45.575Z,24.30
2018-05-21T18:18:14.423Z,24.20
2018-05-21T18:20:43.243Z,24.10
2018-05-21T18:23:12.539Z,24.10
2018-05-21T18:25:41.386Z,24.10
2018-05-21T18:28:11.009Z,24.10
2018-05-21T18:30:40.753Z,24.00
2018-05-21T18:33:09.625Z,23.90
2018-05-21T18:35:39.273Z,23.90
2018-05-21T18:38:08.157Z,23.80
2018-05-21T18:40:37.001Z,23.90
2018-05-21T18:43:06.032Z,23.80
2018-05-21T18:45:34.870Z,23.70
2018-05-21T18:48:03.802Z,23.70
2018-05-21T18:50:33.408Z,23.70
2018-05-21T18:53:03.057Z,23.50
2018-05-21T18:55:31.905Z,23.50
2018-05-21T18:58:01.513Z,23.40
2018-05-21T19:00:31.145Z,23.40
2018-05-21T19:03:00.005Z,23.40
2018-05-21T19:05:28.841Z,23.30
2018-05-21T19:07:57.690Z,23.20
2018-05-21T19:10:27.321Z,23.20
2018-05-21T19:12:56.910Z,23.10
2018-05-21T19:15:26.542Z,23.10
2018-05-21T19:17:55.407Z,23.00
2018-05-21T19:20:25.031Z,23.00
2018-05-21T19:22:54.016Z,22.90
2018-05-21T19:25:23.643Z,22.90
2018-05-21T19:27:52.532Z,22.90
2018-05-21T19:30:21.419Z,22.90
2018-05-21T19:32:50.272Z,22.80
2018-05-21T19:35:19.860Z,22.60
2018-05-21T19:37:50.283Z,22.60
2018-05-21T19:40:19.210Z,22.60
2018-05-21T19:42:48.019Z,22.60
2018-05-21T19:45:16.911Z,22.60
2018-05-21T19:47:45.762Z,22.50
2018-05-21T19:50:14.629Z,22.40
2018-05-21T19:52:43.758Z,22.40
2018-05-21T19:55:12.668Z,22.30
2018-05-21T19:57:41.560Z,22.30
2018-05-21T20:00:11.413Z,22.20
2018-05-21T20:02:40.311Z,22.20
2018-05-21T20:05:09.154Z,22.20
2018-05-21T20:07:38.795Z,22.30
2018-05-21T20:10:08.018Z,22.20
2018-05-21T20:12:37.015Z,22.20
2018-05-21T20:15:05.859Z,22.10
2018-05-21T20:17:35.481Z,22.10
2018-05-21T20:20:04.465Z,22.10
2018-05-21T20:22:34.070Z,22.00
2018-05-21T20:25:04.506Z,21.90
2018-05-21T20:27:34.103Z,21.90
2018-05-21T20:30:04.133Z,21.90
2018-05-21T20:32:32.990Z,21.80
2018-05-21T20:35:02.605Z,21.90
2018-05-21T20:37:32.233Z,21.80
2018-05-21T20:40:01.098Z,21.70
2018-05-21T20:42:30.696Z,21.60
2018-05-21T20:44:59.587Z,21.60
2018-05-21T20:47:28.424Z,21.60
2018-05-21T20:49:57.273Z,21.70
2018-05-21T20:52:26.105Z,21.70
2018-05-21T20:54:55.757Z,21.80
2018-05-21T20:57:24.641Z,21.80
2018-05-21T20:59:53.530Z,21.80
2018-05-21T21:02:22.420Z,21.80
2018-05-21T21:04:51.317Z,21.80
2018-05-21T21:07:20.134Z,21.80
2018-05-21T21:09:49.096Z,21.80
2018-05-21T21:12:18.187Z,21.80
2018-05-21T21:14:47.361Z,21.90
2018-05-21T21:17:16.458Z,21.90
2018-05-21T21:19:45.516Z,21.80
2018-05-21T21:22:15.151Z,21.60
2018-05-21T21:24:44.762Z,21.60
2018-05-21T21:27:13.632Z,21.50
2018-05-21T21:29:42.486Z,21.50
2018-05-21T21:32:11.353Z,21.60
2018-05-21T21:34:40.239Z,21.60
2018-05-21T21:37:09.080Z,21.60
2018-05-21T21:39:37.940Z,21.50
2018-05-21T21:42:06.808Z,21.50
2018-05-21T21:44:35.677Z,21.50
2018-05-21T21:47:04.510Z,21.50
2018-05-21T21:49:33.336Z,21.50
2018-05-21T21:52:02.996Z,21.50
2018-05-21T21:54:33.188Z,21.40
2018-05-21T21:57:02.066Z,21.40
2018-05-21T21:59:30.900Z,21.50
2018-05-21T22:02:00.508Z,21.40
2018-05-21T22:04:30.117Z,21.40
2018-05-21T22:06:59.600Z,21.40
2018-05-21T22:09:28.489Z,21.40
2018-05-21T22:11:57.313Z,21.40
2018-05-21T22:14:26.588Z,21.50
2018-05-21T22:16:56.616Z,21.50
2018-05-21T22:19:25.883Z,21.40
2018-05-21T22:21:54.724Z,21.40
2018-05-21T22:24:25.345Z,21.20
2018-05-21T22:26:54.198Z,21.20
2018-05-21T22:29:23.063Z,21.00
2018-05-21T22:31:52.456Z,21.00
2018-05-21T22:34:21.303Z,21.00
2018-05-21T22:36:50.952Z,21.00
2018-05-21T22:39:19.754Z,20.90
2018-05-21T22:41:48.613Z,21.10
2018-05-21T22:44:17.448Z,21.00
2018-05-21T22:46:46.317Z,20.90
2018-05-21T22:49:16.693Z,20.90
2018-05-21T22:51:45.549Z,20.80
2018-05-21T22:54:26.362Z,20.80
2018-05-21T22:56:55.897Z,20.70
2018-05-21T22:59:24.712Z,20.60
2018-05-21T23:01:53.553Z,20.50
2018-05-21T23:04:22.393Z,20.50
2018-05-21T23:06:51.233Z,20.50
2018-05-21T23:09:20.077Z,20.50
2018-05-21T23:11:48.907Z,20.60
2018-05-21T23:14:17.766Z,20.60
2018-05-21T23:16:46.632Z,20.70
2018-05-21T23:19:16.241Z,20.60
2018-05-21T23:21:45.066Z,20.60
2018-05-21T23:24:14.254Z,20.70
2018-05-21T23:26:43.084Z,20.60
2018-05-21T23:29:12.693Z,20.60
2018-05-21T23:31:42.305Z,20.50
2018-05-21T23:34:11.947Z,20.50
2018-05-21T23:36:40.804Z,20.40
2018-05-21T23:39:10.446Z,20.40
2018-05-21T23:41:39.345Z,20.40
2018-05-21T23:44:08.161Z,20.40
2018-05-21T23:46:36.999Z,20.30
2018-05-21T23:49:05.849Z,20.40
2018-05-21T23:51:34.699Z,20.40
2018-05-21T23:54:03.530Z,20.50
2018-05-21T23:56:32.404Z,20.50
2018-05-21T23:59:02.030Z,20.40
